sensor_id;sensor_type;location;lat;lon;timestamp;pressure;altitude;pressure_sealevel;temperature;humidity
76216;BME280;65010;50.190;18.930;2023-03-03T00:02:06;98562.75;;;3.73;49.05
76216;BME280;65010;50.190;18.930;2023-03-03T00:05:13;98561.81;;;3.74;48.46
76216;BME280;65010;50.190;18.930;2023-03-03T00:08:23;98566.31;;;3.72;48.63
76216;BME280;65010;50.190;18.930;2023-03-03T00:11:30;98558.13;;;3.77;48.73
76216;BME280;65010;50.190;18.930;2023-03-03T00:14:36;98527.72;;;3.56;48.42
76216;BME280;65010;50.190;18.930;2023-03-03T00:17:46;98551.63;;;3.71;47.73
76216;BME280;65010;50.190;18.930;2023-03-03T00:20:53;98491.75;;;3.19;48.12
76216;BME280;65010;50.190;18.930;2023-03-03T00:24:35;98530.03;;;3.38;48.17
76216;BME280;65010;50.190;18.930;2023-03-03T00:27:42;98529.38;;;3.25;48.44
76216;BME280;65010;50.190;18.930;2023-03-03T00:30:55;98550.00;;;3.38;48.69
76216;BME280;65010;50.190;18.930;2023-03-03T00:34:20;98504.97;;;3.16;48.24
76216;BME280;65010;50.190;18.930;2023-03-03T00:37:34;98538.31;;;3.43;48.27
76216;BME280;65010;50.190;18.930;2023-03-03T00:40:44;98498.47;;;3.10;48.61
76216;BME280;65010;50.190;18.930;2023-03-03T00:43:53;98477.88;;;2.98;48.76
76216;BME280;65010;50.190;18.930;2023-03-03T00:47:09;98497.53;;;3.12;48.68
76216;BME280;65010;50.190;18.930;2023-03-03T00:50:40;98567.59;;;3.45;48.23
76216;BME280;65010;50.190;18.930;2023-03-03T00:53:49;98490.09;;;3.07;48.76
76216;BME280;65010;50.190;18.930;2023-03-03T00:56:58;98538.22;;;3.34;48.01
76216;BME280;65010;50.190;18.930;2023-03-03T01:00:06;98520.66;;;3.15;48.00
76216;BME280;65010;50.190;18.930;2023-03-03T01:03:16;98519.72;;;3.16;48.39
76216;BME280;65010;50.190;18.930;2023-03-03T01:06:23;98538.13;;;3.24;48.06
76216;BME280;65010;50.190;18.930;2023-03-03T01:09:30;98542.72;;;3.32;48.12
76216;BME280;65010;50.190;18.930;2023-03-03T01:12:39;98555.81;;;3.30;47.94
76216;BME280;65010;50.190;18.930;2023-03-03T01:15:46;98548.28;;;3.16;48.78
76216;BME280;65010;50.190;18.930;2023-03-03T01:18:52;98549.28;;;2.81;48.78
76216;BME280;65010;50.190;18.930;2023-03-03T01:21:59;98546.69;;;2.69;49.36
76216;BME280;65010;50.190;18.930;2023-03-03T01:25:07;98528.66;;;2.57;48.98
76216;BME280;65010;50.190;18.930;2023-03-03T01:28:17;98531.13;;;2.58;48.80
76216;BME280;65010;50.190;18.930;2023-03-03T01:31:23;98505.91;;;2.38;49.06
76216;BME280;65010;50.190;18.930;2023-03-03T01:34:30;98485.16;;;2.15;49.35
76216;BME280;65010;50.190;18.930;2023-03-03T01:37:36;98462.72;;;1.92;49.40
76216;BME280;65010;50.190;18.930;2023-03-03T01:44:37;98479.72;;;2.07;50.31
76216;BME280;65010;50.190;18.930;2023-03-03T01:47:51;98484.78;;;2.08;50.28
76216;BME280;65010;50.190;18.930;2023-03-03T01:54:44;98479.13;;;2.03;49.75
76216;BME280;65010;50.190;18.930;2023-03-03T01:58:00;98427.25;;;1.69;50.25
76216;BME280;65010;50.190;18.930;2023-03-03T02:01:19;98478.88;;;1.95;50.62
76216;BME280;65010;50.190;18.930;2023-03-03T02:04:28;98461.28;;;1.76;50.96
76216;BME280;65010;50.190;18.930;2023-03-03T02:07:37;98464.94;;;1.74;51.68
76216;BME280;65010;50.190;18.930;2023-03-03T02:10:45;98509.16;;;2.06;51.93
76216;BME280;65010;50.190;18.930;2023-03-03T02:13:53;98510.25;;;2.15;51.28
76216;BME280;65010;50.190;18.930;2023-03-03T02:17:01;98509.91;;;2.19;51.13
76216;BME280;65010;50.190;18.930;2023-03-03T02:20:14;98502.69;;;2.12;50.82
76216;BME280;65010;50.190;18.930;2023-03-03T02:23:37;98522.94;;;2.06;51.16
76216;BME280;65010;50.190;18.930;2023-03-03T02:26:51;98512.94;;;2.02;50.81
76216;BME280;65010;50.190;18.930;2023-03-03T02:30:07;98521.66;;;2.12;50.97
76216;BME280;65010;50.190;18.930;2023-03-03T02:33:17;98527.44;;;2.04;50.43
76216;BME280;65010;50.190;18.930;2023-03-03T02:36:25;98523.94;;;1.70;51.30
76216;BME280;65010;50.190;18.930;2023-03-03T02:39:33;98517.91;;;1.58;51.22
76216;BME280;65010;50.190;18.930;2023-03-03T02:42:44;98530.09;;;1.45;51.65
76216;BME280;65010;50.190;18.930;2023-03-03T02:45:54;98533.88;;;1.52;51.57
76216;BME280;65010;50.190;18.930;2023-03-03T02:49:01;98536.97;;;1.57;51.87
76216;BME280;65010;50.190;18.930;2023-03-03T02:52:09;98533.00;;;1.64;51.47
76216;BME280;65010;50.190;18.930;2023-03-03T02:55:21;98542.31;;;1.67;51.62
76216;BME280;65010;50.190;18.930;2023-03-03T02:58:30;98536.06;;;1.69;51.73
76216;BME280;65010;50.190;18.930;2023-03-03T03:01:38;98529.09;;;1.70;51.46
76216;BME280;65010;50.190;18.930;2023-03-03T03:04:48;98513.56;;;1.70;51.70
76216;BME280;65010;50.190;18.930;2023-03-03T03:07:57;98524.56;;;1.85;52.34
76216;BME280;65010;50.190;18.930;2023-03-03T03:11:06;98529.31;;;1.91;52.66
76216;BME280;65010;50.190;18.930;2023-03-03T03:14:16;98524.47;;;1.98;52.46
76216;BME280;65010;50.190;18.930;2023-03-03T03:17:22;98525.19;;;2.00;51.99
76216;BME280;65010;50.190;18.930;2023-03-03T03:20:29;98523.19;;;2.03;51.98
76216;BME280;65010;50.190;18.930;2023-03-03T03:23:37;98423.91;;;1.56;52.11
76216;BME280;65010;50.190;18.930;2023-03-03T03:30:38;98511.28;;;2.12;52.36
76216;BME280;65010;50.190;18.930;2023-03-03T03:33:47;98512.00;;;2.03;51.56
76216;BME280;65010;50.190;18.930;2023-03-03T03:36:55;98509.16;;;1.95;51.56
76216;BME280;65010;50.190;18.930;2023-03-03T03:40:04;98515.38;;;1.92;51.50
76216;BME280;65010;50.190;18.930;2023-03-03T03:43:11;98510.56;;;1.87;51.38
76216;BME280;65010;50.190;18.930;2023-03-03T03:46:21;98501.09;;;1.75;51.29
76216;BME280;65010;50.190;18.930;2023-03-03T03:49:28;98506.28;;;1.75;51.51
76216;BME280;65010;50.190;18.930;2023-03-03T03:52:42;98494.88;;;1.78;51.33
76216;BME280;65010;50.190;18.930;2023-03-03T03:55:51;98493.94;;;1.79;51.36
76216;BME280;65010;50.190;18.930;2023-03-03T03:58:58;98488.16;;;1.75;51.05
76216;BME280;65010;50.190;18.930;2023-03-03T04:02:07;98467.84;;;1.58;51.42
76216;BME280;65010;50.190;18.930;2023-03-03T04:05:21;98508.53;;;1.80;51.28
76216;BME280;65010;50.190;18.930;2023-03-03T04:11:51;98523.41;;;1.89;50.27
76216;BME280;65010;50.190;18.930;2023-03-03T04:14:58;98481.41;;;1.61;50.18
76216;BME280;65010;50.190;18.930;2023-03-03T04:18:07;98504.03;;;1.70;50.05
76216;BME280;65010;50.190;18.930;2023-03-03T04:29:01;98496.75;;;1.40;49.82
76216;BME280;65010;50.190;18.930;2023-03-03T04:32:09;98460.81;;;1.00;50.07
76216;BME280;65010;50.190;18.930;2023-03-03T04:42:49;98477.94;;;1.14;50.46
76216;BME280;65010;50.190;18.930;2023-03-03T04:53:26;98447.16;;;0.98;50.61
76216;BME280;65010;50.190;18.930;2023-03-03T05:04:09;98483.00;;;1.16;50.41
76216;BME280;65010;50.190;18.930;2023-03-03T05:07:15;98471.81;;;1.15;49.83
76216;BME280;65010;50.190;18.930;2023-03-03T05:18:07;98478.84;;;0.89;52.22
76216;BME280;65010;50.190;18.930;2023-03-03T05:21:17;98499.38;;;0.79;52.83
76216;BME280;65010;50.190;18.930;2023-03-03T05:24:23;98491.81;;;0.52;52.96
76216;BME280;65010;50.190;18.930;2023-03-03T07:22:57;98574.94;;;-0.05;58.37
76216;BME280;65010;50.190;18.930;2023-03-03T08:04:26;98624.41;;;0.28;58.28
76216;BME280;65010;50.190;18.930;2023-03-03T09:46:37;98641.91;;;1.63;61.04
76216;BME280;65010;50.190;18.930;2023-03-03T10:02:02;98596.50;;;1.09;60.17
76216;BME280;65010;50.190;18.930;2023-03-03T10:13:40;98595.81;;;0.94;60.95
76216;BME280;65010;50.190;18.930;2023-03-03T10:17:18;98626.50;;;1.24;60.70
76216;BME280;65010;50.190;18.930;2023-03-03T10:20:44;98638.25;;;1.41;60.19
76216;BME280;65010;50.190;18.930;2023-03-03T10:24:12;98632.53;;;1.49;60.23
76216;BME280;65010;50.190;18.930;2023-03-03T10:27:58;98648.47;;;1.56;60.52
76216;BME280;65010;50.190;18.930;2023-03-03T10:31:28;98676.09;;;1.68;60.24
76216;BME280;65010;50.190;18.930;2023-03-03T10:34:59;98615.72;;;1.18;60.04
76216;BME280;65010;50.190;18.930;2023-03-03T10:38:31;98614.09;;;1.17;60.72
76216;BME280;65010;50.190;18.930;2023-03-03T10:42:04;98633.31;;;1.25;60.28
76216;BME280;65010;50.190;18.930;2023-03-03T10:45:44;98673.59;;;1.42;60.44
76216;BME280;65010;50.190;18.930;2023-03-03T10:49:21;98661.66;;;1.53;60.20
76216;BME280;65010;50.190;18.930;2023-03-03T10:52:49;98641.63;;;1.55;59.45
76216;BME280;65010;50.190;18.930;2023-03-03T10:56:23;98627.00;;;1.29;59.95
76216;BME280;65010;50.190;18.930;2023-03-03T11:00:18;98642.94;;;1.36;60.10
76216;BME280;65010;50.190;18.930;2023-03-03T11:03:54;98598.56;;;1.04;60.67
76216;BME280;65010;50.190;18.930;2023-03-03T11:07:20;98636.81;;;1.37;60.79
76216;BME280;65010;50.190;18.930;2023-03-03T11:10:53;98600.16;;;1.06;60.75
76216;BME280;65010;50.190;18.930;2023-03-03T11:14:15;98603.75;;;1.17;60.38
76216;BME280;65010;50.190;18.930;2023-03-03T11:17:51;98672.38;;;1.59;60.00
76216;BME280;65010;50.190;18.930;2023-03-03T11:21:14;98668.38;;;1.55;60.44
76216;BME280;65010;50.190;18.930;2023-03-03T11:24:44;98670.19;;;1.66;60.43
76216;BME280;65010;50.190;18.930;2023-03-03T11:28:20;98673.50;;;1.68;60.70
76216;BME280;65010;50.190;18.930;2023-03-03T11:31:43;98668.28;;;1.81;59.77
76216;BME280;65010;50.190;18.930;2023-03-03T11:35:04;98594.47;;;1.38;59.70
76216;BME280;65010;50.190;18.930;2023-03-03T11:38:43;98623.81;;;1.50;59.49
76216;BME280;65010;50.190;18.930;2023-03-03T11:42:03;98636.84;;;1.61;59.00
76216;BME280;65010;50.190;18.930;2023-03-03T11:45:33;98592.78;;;1.37;59.28
76216;BME280;65010;50.190;18.930;2023-03-03T11:48:56;98630.41;;;1.67;59.26
76216;BME280;65010;50.190;18.930;2023-03-03T11:52:21;98608.13;;;1.64;58.96
76216;BME280;65010;50.190;18.930;2023-03-03T11:55:38;98665.34;;;2.09;59.27
76216;BME280;65010;50.190;18.930;2023-03-03T11:58:58;98670.56;;;2.21;58.61
76216;BME280;65010;50.190;18.930;2023-03-03T12:06:20;98661.28;;;2.29;58.06
76216;BME280;65010;50.190;18.930;2023-03-03T12:09:47;98660.22;;;2.32;58.18
76216;BME280;65010;50.190;18.930;2023-03-03T12:13:06;98662.69;;;2.34;58.22
76216;BME280;65010;50.190;18.930;2023-03-03T12:16:31;98661.94;;;2.20;58.57
76216;BME280;65010;50.190;18.930;2023-03-03T12:20:06;98661.00;;;2.21;59.26
76216;BME280;65010;50.190;18.930;2023-03-03T12:23:42;98652.69;;;2.29;58.03
76216;BME280;65010;50.190;18.930;2023-03-03T12:27:10;98652.13;;;2.37;57.86
76216;BME280;65010;50.190;18.930;2023-03-03T12:30:36;98645.97;;;2.38;57.56
76216;BME280;65010;50.190;18.930;2023-03-03T12:34:10;98641.75;;;2.48;57.59
76216;BME280;65010;50.190;18.930;2023-03-03T12:37:44;98630.44;;;2.49;57.56
76216;BME280;65010;50.190;18.930;2023-03-03T12:41:06;98639.25;;;2.46;57.79
76216;BME280;65010;50.190;18.930;2023-03-03T12:44:25;98637.25;;;2.50;57.32
76216;BME280;65010;50.190;18.930;2023-03-03T12:47:45;98632.31;;;2.47;56.84
76216;BME280;65010;50.190;18.930;2023-03-03T12:51:04;98627.25;;;2.45;57.29
76216;BME280;65010;50.190;18.930;2023-03-03T12:54:44;98629.72;;;2.47;57.25
76216;BME280;65010;50.190;18.930;2023-03-03T12:58:09;98628.91;;;2.58;57.13
76216;BME280;65010;50.190;18.930;2023-03-03T13:01:38;98629.84;;;2.68;56.05
76216;BME280;65010;50.190;18.930;2023-03-03T13:05:01;98617.38;;;2.73;55.54
76216;BME280;65010;50.190;18.930;2023-03-03T13:08:39;98632.81;;;2.63;56.37
76216;BME280;65010;50.190;18.930;2023-03-03T13:12:17;98629.75;;;2.69;55.89
76216;BME280;65010;50.190;18.930;2023-03-03T13:15:38;98613.94;;;2.73;56.07
76216;BME280;65010;50.190;18.930;2023-03-03T13:19:03;98625.75;;;2.88;55.47
76216;BME280;65010;50.190;18.930;2023-03-03T13:22:25;98624.06;;;2.87;55.19
76216;BME280;65010;50.190;18.930;2023-03-03T13:25:48;98628.09;;;2.80;56.00
76216;BME280;65010;50.190;18.930;2023-03-03T13:29:08;98614.06;;;2.71;55.53
76216;BME280;65010;50.190;18.930;2023-03-03T13:32:30;98628.81;;;2.59;55.15
76216;BME280;65010;50.190;18.930;2023-03-03T13:35:49;98628.09;;;2.57;55.60
76216;BME280;65010;50.190;18.930;2023-03-03T13:39:13;98626.66;;;2.64;55.92
76216;BME280;65010;50.190;18.930;2023-03-03T13:42:33;98624.56;;;2.69;56.33
76216;BME280;65010;50.190;18.930;2023-03-03T13:45:59;98617.69;;;2.68;56.16
76216;BME280;65010;50.190;18.930;2023-03-03T13:49:39;98619.84;;;2.63;56.46
76216;BME280;65010;50.190;18.930;2023-03-03T13:53:11;98604.34;;;2.50;56.39
76216;BME280;65010;50.190;18.930;2023-03-03T13:57:02;98616.88;;;2.68;55.71
76216;BME280;65010;50.190;18.930;2023-03-03T14:00:39;98621.16;;;2.69;55.63
76216;BME280;65010;50.190;18.930;2023-03-03T14:04:09;98609.59;;;2.73;55.75
76216;BME280;65010;50.190;18.930;2023-03-03T14:07:32;98616.66;;;2.82;55.35
76216;BME280;65010;50.190;18.930;2023-03-03T14:10:51;98626.44;;;2.79;55.03
76216;BME280;65010;50.190;18.930;2023-03-03T14:18:14;98620.44;;;2.78;54.51
76216;BME280;65010;50.190;18.930;2023-03-03T14:21:37;98613.34;;;2.80;54.14
76216;BME280;65010;50.190;18.930;2023-03-03T14:24:59;98614.88;;;2.83;54.59
76216;BME280;65010;50.190;18.930;2023-03-03T14:28:16;98599.66;;;2.78;54.40
76216;BME280;65010;50.190;18.930;2023-03-03T14:31:29;98607.69;;;2.75;54.36
76216;BME280;65010;50.190;18.930;2023-03-03T14:34:58;98602.50;;;2.64;54.77
76216;BME280;65010;50.190;18.930;2023-03-03T14:38:23;98606.63;;;2.55;55.08
76216;BME280;65010;50.190;18.930;2023-03-03T14:41:42;98608.63;;;2.52;55.03
76216;BME280;65010;50.190;18.930;2023-03-03T14:44:54;98604.25;;;2.52;55.26
76216;BME280;65010;50.190;18.930;2023-03-03T14:48:15;98608.38;;;2.55;55.62
76216;BME280;65010;50.190;18.930;2023-03-03T14:51:25;98608.25;;;2.56;55.38
76216;BME280;65010;50.190;18.930;2023-03-03T14:54:41;98604.84;;;2.56;55.12
76216;BME280;65010;50.190;18.930;2023-03-03T14:57:54;98597.16;;;2.54;55.37
76216;BME280;65010;50.190;18.930;2023-03-03T15:01:08;98602.50;;;2.64;55.22
76216;BME280;65010;50.190;18.930;2023-03-03T15:04:26;98608.28;;;2.67;54.83
76216;BME280;65010;50.190;18.930;2023-03-03T15:07:36;98606.03;;;2.63;54.60
76216;BME280;65010;50.190;18.930;2023-03-03T15:10:46;98604.75;;;2.57;54.61
76216;BME280;65010;50.190;18.930;2023-03-03T15:14:10;98603.28;;;2.42;55.00
76216;BME280;65010;50.190;18.930;2023-03-03T15:17:25;98595.75;;;2.39;55.69
76216;BME280;65010;50.190;18.930;2023-03-03T15:20:41;98594.81;;;2.40;55.41
76216;BME280;65010;50.190;18.930;2023-03-03T15:24:20;98561.41;;;2.13;54.71
76216;BME280;65010;50.190;18.930;2023-03-03T15:27:45;98601.28;;;2.34;54.81
76216;BME280;65010;50.190;18.930;2023-03-03T15:31:04;98596.31;;;2.31;54.84
76216;BME280;65010;50.190;18.930;2023-03-03T15:34:37;98598.31;;;2.27;55.21
76216;BME280;65010;50.190;18.930;2023-03-03T15:38:03;98594.06;;;2.15;54.96
76216;BME280;65010;50.190;18.930;2023-03-03T15:41:38;98596.91;;;1.88;55.85
76216;BME280;65010;50.190;18.930;2023-03-03T15:45:00;98606.19;;;1.79;56.17
76216;BME280;65010;50.190;18.930;2023-03-03T15:48:32;98605.19;;;1.93;56.17
76216;BME280;65010;50.190;18.930;2023-03-03T15:52:09;98603.75;;;1.89;55.95
76216;BME280;65010;50.190;18.930;2023-03-03T15:55:46;98596.59;;;1.93;56.28
76216;BME280;65010;50.190;18.930;2023-03-03T16:03:25;98601.72;;;1.81;56.96
76216;BME280;65010;50.190;18.930;2023-03-03T16:06:56;98605.84;;;1.84;57.22
76216;BME280;65010;50.190;18.930;2023-03-03T16:10:23;98607.28;;;1.88;56.66
76216;BME280;65010;50.190;18.930;2023-03-03T16:13:47;98598.75;;;1.75;56.81
76216;BME280;65010;50.190;18.930;2023-03-03T16:17:21;98604.19;;;1.83;56.94
76216;BME280;65010;50.190;18.930;2023-03-03T16:20:56;98596.91;;;1.88;56.10
76216;BME280;65010;50.190;18.930;2023-03-03T16:24:30;98596.44;;;1.83;56.53
76216;BME280;65010;50.190;18.930;2023-03-03T16:31:35;98615.66;;;1.92;56.47
76216;BME280;65010;50.190;18.930;2023-03-03T16:34:54;98608.84;;;1.90;56.54
76216;BME280;65010;50.190;18.930;2023-03-03T16:38:05;98619.19;;;1.90;56.59
76216;BME280;65010;50.190;18.930;2023-03-03T16:41:28;98615.53;;;1.93;56.70
76216;BME280;65010;50.190;18.930;2023-03-03T16:45:04;98618.06;;;2.06;56.57
76216;BME280;65010;50.190;18.930;2023-03-03T16:48:27;98614.19;;;2.12;56.58
76216;BME280;65010;50.190;18.930;2023-03-03T16:51:52;98608.91;;;2.13;56.80
76216;BME280;65010;50.190;18.930;2023-03-03T16:55:12;98610.78;;;2.11;56.74
76216;BME280;65010;50.190;18.930;2023-03-03T16:58:34;98622.78;;;2.12;56.68
76216;BME280;65010;50.190;18.930;2023-03-03T17:02:06;98622.78;;;2.12;56.80
76216;BME280;65010;50.190;18.930;2023-03-03T17:05:34;98619.13;;;2.03;56.98
76216;BME280;65010;50.190;18.930;2023-03-03T17:09:20;98618.84;;;1.95;57.48
76216;BME280;65010;50.190;18.930;2023-03-03T17:12:50;98613.63;;;1.84;57.82
76216;BME280;65010;50.190;18.930;2023-03-03T17:16:13;98626.31;;;1.76;58.32
76216;BME280;65010;50.190;18.930;2023-03-03T17:19:40;98617.09;;;1.72;58.54
76216;BME280;65010;50.190;18.930;2023-03-03T17:23:14;98620.94;;;1.66;58.82
76216;BME280;65010;50.190;18.930;2023-03-03T17:27:02;98630.50;;;1.65;59.20
76216;BME280;65010;50.190;18.930;2023-03-03T17:30:20;98629.56;;;1.66;58.95
76216;BME280;65010;50.190;18.930;2023-03-03T17:33:50;98634.53;;;1.69;58.85
76216;BME280;65010;50.190;18.930;2023-03-03T17:37:35;98635.13;;;1.73;59.09
76216;BME280;65010;50.190;18.930;2023-03-03T17:40:57;98627.03;;;1.78;58.95
76216;BME280;65010;50.190;18.930;2023-03-03T17:44:21;98623.34;;;1.69;59.34
76216;BME280;65010;50.190;18.930;2023-03-03T17:47:49;98624.69;;;1.62;59.74
76216;BME280;65010;50.190;18.930;2023-03-03T17:51:23;98631.91;;;1.58;59.65
76216;BME280;65010;50.190;18.930;2023-03-03T17:55:20;98632.03;;;1.68;59.83
76216;BME280;65010;50.190;18.930;2023-03-03T17:59:24;98630.44;;;1.78;59.62
76216;BME280;65010;50.190;18.930;2023-03-03T18:03:07;98638.38;;;1.88;59.26
76216;BME280;65010;50.190;18.930;2023-03-03T18:06:51;98640.41;;;1.96;58.87
76216;BME280;65010;50.190;18.930;2023-03-03T18:10:43;98632.38;;;1.87;58.88
76216;BME280;65010;50.190;18.930;2023-03-03T18:14:29;98634.13;;;1.87;58.73
76216;BME280;65010;50.190;18.930;2023-03-03T18:18:02;98626.38;;;1.87;58.93
76216;BME280;65010;50.190;18.930;2023-03-03T18:21:15;98627.28;;;1.86;59.02
76216;BME280;65010;50.190;18.930;2023-03-03T18:24:33;98632.88;;;1.93;59.09
76216;BME280;65010;50.190;18.930;2023-03-03T18:27:43;98637.94;;;1.94;58.93
76216;BME280;65010;50.190;18.930;2023-03-03T18:30:59;98638.63;;;1.96;59.00
76216;BME280;65010;50.190;18.930;2023-03-03T18:34:28;98635.59;;;2.02;59.03
76216;BME280;65010;50.190;18.930;2023-03-03T18:37:44;98639.41;;;2.09;58.75
76216;BME280;65010;50.190;18.930;2023-03-03T18:40:57;98628.66;;;2.03;58.45
76216;BME280;65010;50.190;18.930;2023-03-03T18:44:23;98632.56;;;2.08;58.67
76216;BME280;65010;50.190;18.930;2023-03-03T18:48:00;98630.34;;;2.15;58.74
76216;BME280;65010;50.190;18.930;2023-03-03T18:51:09;98631.16;;;2.16;58.36
76216;BME280;65010;50.190;18.930;2023-03-03T18:54:30;98629.84;;;1.99;58.64
76216;BME280;65010;50.190;18.930;2023-03-03T18:57:38;98621.34;;;1.97;59.28
76216;BME280;65010;50.190;18.930;2023-03-03T19:00:49;98622.88;;;1.99;59.04
76216;BME280;65010;50.190;18.930;2023-03-03T19:07:47;98605.19;;;2.04;58.15
76216;BME280;65010;50.190;18.930;2023-03-03T19:10:58;98624.22;;;2.16;58.26
76216;BME280;65010;50.190;18.930;2023-03-03T19:14:17;98619.03;;;2.16;58.19
76216;BME280;65010;50.190;18.930;2023-03-03T19:17:47;98609.50;;;2.17;57.88
76216;BME280;65010;50.190;18.930;2023-03-03T19:20:58;98612.81;;;2.19;57.39
76216;BME280;65010;50.190;18.930;2023-03-03T19:24:29;98607.22;;;2.12;58.09
76216;BME280;65010;50.190;18.930;2023-03-03T19:27:44;98609.50;;;2.17;57.95
76216;BME280;65010;50.190;18.930;2023-03-03T19:31:03;98610.44;;;2.16;58.13
76216;BME280;65010;50.190;18.930;2023-03-03T19:34:23;98620.91;;;2.14;58.15
76216;BME280;65010;50.190;18.930;2023-03-03T19:37:51;98613.97;;;2.15;58.66
76216;BME280;65010;50.190;18.930;2023-03-03T19:41:30;98612.22;;;2.26;58.03
76216;BME280;65010;50.190;18.930;2023-03-03T19:45:03;98622.59;;;2.26;58.17
76216;BME280;65010;50.190;18.930;2023-03-03T19:48:28;98609.50;;;2.17;58.37
76216;BME280;65010;50.190;18.930;2023-03-03T19:51:49;98612.56;;;2.22;58.56
76216;BME280;65010;50.190;18.930;2023-03-03T19:55:29;98614.44;;;2.20;58.41
76216;BME280;65010;50.190;18.930;2023-03-03T19:58:59;98621.06;;;2.24;58.67
76216;BME280;65010;50.190;18.930;2023-03-03T20:02:37;98620.81;;;2.16;58.75
76216;BME280;65010;50.190;18.930;2023-03-03T20:06:03;98615.16;;;2.10;58.39
76216;BME280;65010;50.190;18.930;2023-03-03T20:09:34;98614.28;;;1.99;58.99
76216;BME280;65010;50.190;18.930;2023-03-03T20:12:58;98607.56;;;2.07;58.95
76216;BME280;65010;50.190;18.930;2023-03-03T20:16:23;98611.06;;;1.95;59.24
76216;BME280;65010;50.190;18.930;2023-03-03T20:19:49;98611.22;;;2.05;58.84
76216;BME280;65010;50.190;18.930;2023-03-03T20:23:10;98605.19;;;2.04;59.00
76216;BME280;65010;50.190;18.930;2023-03-03T20:26:33;98609.81;;;2.01;58.96
76216;BME280;65010;50.190;18.930;2023-03-03T20:30:05;98611.78;;;1.97;58.62
76216;BME280;65010;50.190;18.930;2023-03-03T20:33:36;98617.31;;;1.93;59.05
76216;BME280;65010;50.190;18.930;2023-03-03T20:37:02;98621.91;;;1.89;59.41
76216;BME280;65010;50.190;18.930;2023-03-03T20:40:23;98614.72;;;1.93;59.14
76216;BME280;65010;50.190;18.930;2023-03-03T20:43:51;98616.03;;;1.98;59.09
76216;BME280;65010;50.190;18.930;2023-03-03T20:47:18;98618.63;;;1.98;59.06
76216;BME280;65010;50.190;18.930;2023-03-03T20:50:50;98609.09;;;1.99;59.22
76216;BME280;65010;50.190;18.930;2023-03-03T20:54:11;98603.47;;;2.05;58.97
76216;BME280;65010;50.190;18.930;2023-03-03T20:57:39;98599.19;;;2.04;59.09
76216;BME280;65010;50.190;18.930;2023-03-03T21:01:02;98600.00;;;2.04;59.15
76216;BME280;65010;50.190;18.930;2023-03-03T21:04:22;98591.75;;;1.99;58.98
76216;BME280;65010;50.190;18.930;2023-03-03T21:07:33;98590.56;;;1.92;58.82
76216;BME280;65010;50.190;18.930;2023-03-03T21:10:55;98582.06;;;1.90;59.21
76216;BME280;65010;50.190;18.930;2023-03-03T21:14:16;98584.81;;;2.00;59.11
76216;BME280;65010;50.190;18.930;2023-03-03T21:17:26;98580.13;;;2.05;58.70
76216;BME280;65010;50.190;18.930;2023-03-03T21:20:34;98569.03;;;2.03;58.74
76216;BME280;65010;50.190;18.930;2023-03-03T21:23:43;98559.34;;;1.94;58.96
76216;BME280;65010;50.190;18.930;2023-03-03T21:26:53;98578.44;;;2.04;58.96
76216;BME280;65010;50.190;18.930;2023-03-03T21:30:11;98573.25;;;1.93;59.01
76216;BME280;65010;50.190;18.930;2023-03-03T21:33:40;98572.66;;;1.89;58.97
76216;BME280;65010;50.190;18.930;2023-03-03T21:36:53;98571.69;;;1.90;59.04
76216;BME280;65010;50.190;18.930;2023-03-03T21:40:15;98559.69;;;1.89;58.63
76216;BME280;65010;50.190;18.930;2023-03-03T21:43:33;98562.63;;;1.84;58.83
76216;BME280;65010;50.190;18.930;2023-03-03T21:46:40;98560.34;;;1.80;58.84
76216;BME280;65010;50.190;18.930;2023-03-03T21:49:47;98556.84;;;1.81;59.18
76216;BME280;65010;50.190;18.930;2023-03-03T21:52:57;98560.59;;;1.77;59.06
76216;BME280;65010;50.190;18.930;2023-03-03T21:56:07;98557.03;;;1.66;59.50
76216;BME280;65010;50.190;18.930;2023-03-03T21:59:15;98549.72;;;1.60;59.71
76216;BME280;65010;50.190;18.930;2023-03-03T22:02:21;98545.25;;;1.62;59.53
76216;BME280;65010;50.190;18.930;2023-03-03T22:05:28;98543.84;;;1.69;59.65
76216;BME280;65010;50.190;18.930;2023-03-03T22:08:33;98538.00;;;1.79;59.46
76216;BME280;65010;50.190;18.930;2023-03-03T22:11:43;98536.47;;;1.87;58.91
76216;BME280;65010;50.190;18.930;2023-03-03T22:14:49;98529.41;;;1.89;59.15
76216;BME280;65010;50.190;18.930;2023-03-03T22:17:56;98525.19;;;1.88;59.02
76216;BME280;65010;50.190;18.930;2023-03-03T22:21:02;98511.16;;;1.91;59.03
76216;BME280;65010;50.190;18.930;2023-03-03T22:24:09;98506.69;;;2.04;58.79
76216;BME280;65010;50.190;18.930;2023-03-03T22:27:17;98506.34;;;1.98;58.82
76216;BME280;65010;50.190;18.930;2023-03-03T22:30:24;98500.78;;;2.02;58.92
76216;BME280;65010;50.190;18.930;2023-03-03T22:33:30;98488.19;;;1.98;58.54
76216;BME280;65010;50.190;18.930;2023-03-03T22:36:36;98492.41;;;1.87;59.30
76216;BME280;65010;50.190;18.930;2023-03-03T22:39:42;98485.69;;;1.85;59.29
76216;BME280;65010;50.190;18.930;2023-03-03T22:42:51;98482.28;;;1.84;59.33
76216;BME280;65010;50.190;18.930;2023-03-03T22:45:57;98482.72;;;1.78;59.39
76216;BME280;65010;50.190;18.930;2023-03-03T22:49:04;98487.69;;;1.81;59.41
76216;BME280;65010;50.190;18.930;2023-03-03T22:52:10;98471.78;;;1.75;59.23
76216;BME280;65010;50.190;18.930;2023-03-03T22:55:17;98483.44;;;1.69;59.72
76216;BME280;65010;50.190;18.930;2023-03-03T22:58:25;98473.06;;;1.69;59.67
76216;BME280;65010;50.190;18.930;2023-03-03T23:01:33;98468.22;;;1.64;59.93
76216;BME280;65010;50.190;18.930;2023-03-03T23:04:38;98456.81;;;1.67;59.96
76216;BME280;65010;50.190;18.930;2023-03-03T23:07:45;98460.56;;;1.63;60.30
76216;BME280;65010;50.190;18.930;2023-03-03T23:10:53;98458.78;;;1.63;60.40
76216;BME280;65010;50.190;18.930;2023-03-03T23:14:02;98457.53;;;1.69;60.25
76216;BME280;65010;50.190;18.930;2023-03-03T23:17:08;98462.13;;;1.77;59.81
76216;BME280;65010;50.190;18.930;2023-03-03T23:20:17;98454.22;;;1.78;59.90
76216;BME280;65010;50.190;18.930;2023-03-03T23:23:24;98450.44;;;1.82;59.99